Overview Statistics Trail Chart Weather Telemetry Raw packets
 

This is the latest recevied weather packets stored in our database for station/object PU5FJO-13. If no packets are shown the sender has not sent any weather packets the latest 10 day(s).

<< 37 38 39 40 41 42 43 >>
Time Temp. Humidity Pressure Rain* Wind** Luminosity Snow
1777252565 21.67° C 83% 1011.2 hPa - - - -
1777251965 21.11° C 83% 1011.2 hPa - - - -
1777251365 21.11° C 85% 1011.3 hPa - - - -
1777250765 20.56° C 87% 1011.5 hPa - - - -
1777250164 21.11° C 86% 1011.5 hPa - - - -
1777249565 21.11° C 85% 1011.1 hPa - - - -
1777248964 21.11° C 85% 1011.3 hPa - - - -
1777248365 21.11° C 85% 1011.2 hPa - - - -
1777247764 21.11° C 85% 1011 hPa - - - -
1777247165 21.67° C 84% 1011 hPa - - - -
1777246565 21.67° C 83% 1010.8 hPa - - - -
1777245964 22.22° C 81% 1010.4 hPa - - - -
1777245364 21.67° C 84% 1010.8 hPa - - - -
1777244767 21.67° C 83% 1010.7 hPa - - - -
1777244164 21.11° C 85% 1010.4 hPa - - - -
1777243565 21.11° C 85% 1010.3 hPa - - - -
1777242964 21.67° C 83% 1010.3 hPa - - - -
1777242365 21.67° C 83% 1010.2 hPa - - - -
1777241764 22.22° C 81% 1010 hPa - - - -
1777241164 22.22° C 80% 1009.8 hPa - - - -
1777240564 22.22° C 81% 1009.8 hPa - - - -
1777239965 22.22° C 82% 1009.7 hPa - - - -
1777239367 22.22° C 82% 1009.7 hPa - - - -
1777238764 22.78° C 80% 1009.6 hPa - - - -
1777238164 23.33° C 78% 1009.5 hPa - - - -

* Rain since midnight (hover to see other rain measurements)
** Current wind speed in m/s (hover to see current wind gust speed)